首页
METAR-TAF:

METAR-TAF

机场 :

朗塞斯顿, 澳大利亚

纬度: 41-32S, 经度: 147-12E, 海拔: 171米

当前天气观测

该预报发布于36分钟前的20:00 UTC
风速10节,风向南转南东
温度 8°C
湿度 87%
气压 1024 hPa
能见度10公里或以上

METAR: YMLT 072000Z AUTO 16010KT 9999 // NCD 08/06 Q1024

时间: 06:36 (20:36 UTC)

预报

该预报发布于3小时和26分钟前的17:10 UTC
预报有效从07日的 18点(UTC)到 08日的 18点(UTC)
风速6节,风向南转南东
能见度10公里或以上
少量云层高于3000英尺
从 08日的 0000点(UTC)
风速10节,风向东南
能见度10公里或以上
少量云层高于3000英尺
从 08日的 1500点(UTC)
风速3节,风向多变
能见度10公里或以上
1500米以下无云,无积雨云

TAF: YMLT 071710Z 0718/0818 16006KT 9999 FEW030 FM080000 14010KT 9999 FEW030 FM081500 VRB03KT CAVOK

超过4000个机场的气象观测和天气预报(METAR&TAF报告)。

可查询的气象台以黄色和红色小点在地图上表示。

将鼠标移到小点上方,可查看气象台名称。

然后点击查看天气观测和预报。

如需切换地图:点击带黑十字的绿色按钮放大地图;点击带横线的绿色按钮缩小地图;或者点击绿色箭头查看邻近地区的地图。


METAR-TAF: